createdAt,value
2022-08-25T00:01:42.961Z,99.90
2022-08-25T00:04:11.012Z,99.90
2022-08-25T00:06:38.461Z,99.90
2022-08-25T00:09:05.701Z,99.90
2022-08-25T00:11:33.260Z,99.90
2022-08-25T00:14:02.420Z,99.90
2022-08-25T00:16:31.173Z,99.90
2022-08-25T00:18:59.112Z,99.90
2022-08-25T00:21:26.211Z,99.90
2022-08-25T00:23:53.196Z,99.90
2022-08-25T00:26:19.890Z,99.90
2022-08-25T00:28:46.598Z,99.90
2022-08-25T00:31:18.217Z,99.90
2022-08-25T00:33:45.137Z,99.90
2022-08-25T00:36:12.448Z,99.90
2022-08-25T00:38:39.755Z,99.90
2022-08-25T00:41:06.592Z,99.90
2022-08-25T00:43:53.492Z,99.90
2022-08-25T00:46:25.990Z,99.90
2022-08-25T00:49:03.580Z,99.90
2022-08-25T00:51:36.523Z,99.90
2022-08-25T00:54:03.872Z,99.90
2022-08-25T00:56:31.743Z,99.90
2022-08-25T00:58:59.544Z,99.90
2022-08-25T01:01:26.591Z,99.90
2022-08-25T01:03:53.256Z,99.90
2022-08-25T01:06:20.063Z,99.90
2022-08-25T01:08:46.820Z,99.90
2022-08-25T01:11:13.476Z,99.90
2022-08-25T01:13:40.114Z,99.90
2022-08-25T01:16:06.845Z,99.90
2022-08-25T01:18:44.675Z,99.90
2022-08-25T01:21:11.385Z,99.90
2022-08-25T01:23:38.621Z,99.90
2022-08-25T01:26:08.369Z,99.90
2022-08-25T01:28:35.669Z,99.90
2022-08-25T01:31:02.765Z,99.90
2022-08-25T01:33:29.565Z,99.90
2022-08-25T01:35:56.568Z,99.90
2022-08-25T01:38:23.182Z,99.90
2022-08-25T01:40:49.795Z,99.90
2022-08-25T01:43:21.148Z,99.90
2022-08-25T01:45:48.488Z,99.90
2022-08-25T01:48:15.660Z,99.90
2022-08-25T01:50:42.563Z,99.90
2022-08-25T01:53:28.795Z,99.90
2022-08-25T01:56:02.599Z,99.90
2022-08-25T01:58:30.819Z,99.90
2022-08-25T02:00:58.918Z,99.90
2022-08-25T02:03:26.154Z,99.90
2022-08-25T02:05:53.576Z,99.90
2022-08-25T02:08:20.231Z,99.90
2022-08-25T02:10:46.874Z,99.90
2022-08-25T02:13:13.807Z,99.90
2022-08-25T02:15:45.218Z,99.90
2022-08-25T02:18:12.406Z,99.90
2022-08-25T02:20:39.501Z,99.90
2022-08-25T02:23:06.256Z,99.90
2022-08-25T02:25:33.728Z,99.90
2022-08-25T02:28:00.530Z,99.90
2022-08-25T02:30:27.424Z,99.90
2022-08-25T02:32:54.189Z,99.90
2022-08-25T02:35:21.861Z,99.90
2022-08-25T02:37:50.116Z,99.90
2022-08-25T02:40:17.484Z,99.90
2022-08-25T02:42:44.913Z,99.90
2022-08-25T02:45:11.561Z,99.90
2022-08-25T02:47:38.185Z,99.90
2022-08-25T02:50:05.957Z,99.90
2022-08-25T02:52:32.560Z,99.90
2022-08-25T02:54:59.228Z,99.90
2022-08-25T02:57:25.842Z,99.90
2022-08-25T02:59:52.712Z,99.90
2022-08-25T03:02:19.317Z,99.90
2022-08-25T03:04:46.031Z,99.90
2022-08-25T03:07:12.683Z,99.90
2022-08-25T03:09:39.488Z,99.90
2022-08-25T03:12:06.209Z,99.90
2022-08-25T03:14:34.139Z,99.90
2022-08-25T03:17:00.821Z,99.90
2022-08-25T03:19:27.551Z,99.90
2022-08-25T03:21:56.250Z,99.90
2022-08-25T03:24:23.669Z,99.90
2022-08-25T03:26:56.115Z,99.90
2022-08-25T03:29:24.745Z,99.90
2022-08-25T03:31:52.162Z,99.90
2022-08-25T03:34:19.749Z,99.90
2022-08-25T03:36:47.994Z,99.90
2022-08-25T03:39:14.820Z,99.90
2022-08-25T03:41:41.489Z,99.90
2022-08-25T03:44:09.317Z,99.90
2022-08-25T03:46:43.479Z,99.90
2022-08-25T03:49:11.522Z,99.90
2022-08-25T03:51:40.477Z,99.90
2022-08-25T03:54:08.580Z,99.90
2022-08-25T03:56:35.519Z,99.90
2022-08-25T03:59:03.549Z,99.90
2022-08-25T04:01:30.363Z,99.90
2022-08-25T04:03:57.019Z,99.90
2022-08-25T04:06:23.756Z,99.90
2022-08-25T04:08:52.779Z,99.90
2022-08-25T04:11:20.880Z,99.90
2022-08-25T04:13:48.047Z,99.90
2022-08-25T04:16:16.863Z,99.90
2022-08-25T04:18:43.862Z,99.90
2022-08-25T04:21:11.235Z,99.90
2022-08-25T04:23:39.052Z,99.90
2022-08-25T04:26:15.962Z,99.90
2022-08-25T04:28:42.888Z,99.90
2022-08-25T04:31:12.041Z,99.90
2022-08-25T04:33:38.937Z,99.90
2022-08-25T04:36:10.149Z,99.90
2022-08-25T04:38:39.790Z,99.90
2022-08-25T04:41:07.052Z,99.90
2022-08-25T04:43:34.281Z,99.90
2022-08-25T04:46:06.456Z,99.90
2022-08-25T04:48:33.960Z,99.90
2022-08-25T04:51:04.866Z,99.90
2022-08-25T04:53:32.233Z,99.90
2022-08-25T04:56:03.556Z,99.90
2022-08-25T04:58:30.607Z,99.90
2022-08-25T05:01:04.471Z,99.90
2022-08-25T05:03:31.265Z,99.90
2022-08-25T05:05:58.576Z,99.90
2022-08-25T05:08:28.515Z,99.90
2022-08-25T05:10:56.803Z,99.90
2022-08-25T05:13:24.591Z,99.90
2022-08-25T05:15:56.223Z,99.90
2022-08-25T05:18:25.945Z,99.90
2022-08-25T05:20:56.469Z,99.90
2022-08-25T05:23:24.255Z,99.90
2022-08-25T05:25:51.770Z,99.90
2022-08-25T05:28:18.951Z,99.90
2022-08-25T05:30:45.907Z,99.90
2022-08-25T05:33:13.336Z,99.90
2022-08-25T05:35:40.022Z,99.90
2022-08-25T05:38:07.328Z,99.90
2022-08-25T05:40:41.764Z,99.90
2022-08-25T05:43:08.423Z,99.90
2022-08-25T05:45:35.819Z,99.90
2022-08-25T05:48:02.933Z,99.90
2022-08-25T05:50:29.749Z,99.90
2022-08-25T05:52:59.497Z,99.90
2022-08-25T05:55:26.216Z,99.90
2022-08-25T05:57:52.903Z,99.90
2022-08-25T06:00:19.663Z,99.90
2022-08-25T06:02:49.590Z,99.90
2022-08-25T06:05:17.817Z,99.90
2022-08-25T06:07:45.546Z,99.90
2022-08-25T06:10:15.482Z,99.90
2022-08-25T06:12:44.600Z,99.90
2022-08-25T06:15:15.985Z,99.90
2022-08-25T06:17:43.096Z,99.90
2022-08-25T06:20:11.769Z,99.90
2022-08-25T06:22:38.425Z,99.90
2022-08-25T06:25:05.416Z,99.90
2022-08-25T06:27:32.063Z,99.90
2022-08-25T06:29:58.865Z,99.90
2022-08-25T06:32:39.020Z,99.90
2022-08-25T06:35:07.268Z,99.90
2022-08-25T06:37:34.063Z,99.90
2022-08-25T06:40:00.903Z,99.90
2022-08-25T06:42:27.700Z,99.90
2022-08-25T06:44:54.428Z,99.90
2022-08-25T06:47:21.229Z,99.90
2022-08-25T06:49:48.027Z,99.90
2022-08-25T06:52:14.913Z,99.90
2022-08-25T06:54:41.549Z,99.90
2022-08-25T06:57:08.464Z,99.90
2022-08-25T06:59:35.445Z,99.90
2022-08-25T07:02:03.198Z,99.90
2022-08-25T07:04:30.423Z,99.90
2022-08-25T07:06:57.016Z,99.90
2022-08-25T07:09:23.665Z,99.90
2022-08-25T07:11:50.322Z,99.90
2022-08-25T07:14:18.007Z,99.90
2022-08-25T07:16:48.799Z,99.90
2022-08-25T07:19:16.257Z,99.90
2022-08-25T07:21:45.989Z,99.90
2022-08-25T07:24:14.016Z,99.90
2022-08-25T07:26:42.170Z,99.90
2022-08-25T07:29:17.639Z,99.90
2022-08-25T07:31:44.525Z,99.90
2022-08-25T07:34:33.205Z,99.90
2022-08-25T07:37:03.276Z,99.90
2022-08-25T07:39:32.562Z,99.90
2022-08-25T07:41:59.767Z,99.90
2022-08-25T07:44:27.996Z,99.90
2022-08-25T07:46:55.161Z,99.90
2022-08-25T07:49:23.730Z,99.90
2022-08-25T07:52:03.729Z,99.90
2022-08-25T07:54:33.952Z,99.90
2022-08-25T07:57:01.740Z,99.90
2022-08-25T07:59:28.376Z,99.90
2022-08-25T08:01:55.153Z,99.90
2022-08-25T08:04:22.346Z,99.90
2022-08-25T08:06:49.337Z,99.90
2022-08-25T08:09:16.701Z,99.90
2022-08-25T08:11:54.010Z,99.90
2022-08-25T08:14:21.234Z,99.90
2022-08-25T08:16:47.934Z,99.90
2022-08-25T08:19:14.629Z,99.90
2022-08-25T08:21:41.656Z,99.90
2022-08-25T08:24:19.568Z,99.90
2022-08-25T08:26:58.902Z,99.90
2022-08-25T08:29:26.817Z,99.90
2022-08-25T08:31:53.523Z,99.90
2022-08-25T08:34:20.273Z,99.90
2022-08-25T08:36:51.839Z,99.90
2022-08-25T08:39:18.590Z,99.90
2022-08-25T08:42:20.245Z,99.90
2022-08-25T08:44:57.035Z,99.90
2022-08-25T08:47:35.713Z,99.90
2022-08-25T08:50:05.914Z,99.90
2022-08-25T08:52:51.437Z,99.90
2022-08-25T08:55:25.506Z,99.90
2022-08-25T08:57:53.306Z,99.90
2022-08-25T09:00:21.231Z,99.90
2022-08-25T09:02:55.112Z,99.90
2022-08-25T09:05:24.149Z,99.90
2022-08-25T09:07:55.072Z,99.90
2022-08-25T09:10:24.653Z,99.90
2022-08-25T09:12:52.058Z,99.90
2022-08-25T09:15:24.701Z,99.90
2022-08-25T09:17:54.860Z,99.90
2022-08-25T09:20:39.916Z,99.90
2022-08-25T09:23:20.235Z,99.90
2022-08-25T09:25:56.050Z,99.90
2022-08-25T09:28:22.621Z,99.90
2022-08-25T09:31:00.591Z,99.90
2022-08-25T09:33:28.620Z,99.90
2022-08-25T09:35:57.409Z,99.90
2022-08-25T09:38:26.147Z,99.90
2022-08-25T09:40:56.486Z,99.90
2022-08-25T09:43:30.179Z,99.90
2022-08-25T09:46:12.196Z,99.90
2022-08-25T09:48:56.626Z,99.90
2022-08-25T09:51:25.706Z,99.90
2022-08-25T09:54:11.122Z,99.90
2022-08-25T09:56:48.556Z,99.90
2022-08-25T09:59:34.604Z,99.90
2022-08-25T10:02:23.578Z,99.90
2022-08-25T10:04:50.297Z,99.90
2022-08-25T10:07:33.520Z,99.90
2022-08-25T10:10:01.835Z,99.90
2022-08-25T10:12:42.466Z,99.90
2022-08-25T10:15:30.446Z,99.90
2022-08-25T10:18:17.283Z,99.90
2022-08-25T10:20:44.624Z,99.90
2022-08-25T10:23:13.470Z,99.90
2022-08-25T10:25:42.861Z,99.90
2022-08-25T10:28:43.980Z,99.90
2022-08-25T10:31:10.611Z,99.90
2022-08-25T10:33:45.224Z,99.90
2022-08-25T10:36:21.442Z,99.90
2022-08-25T10:38:54.163Z,99.90
2022-08-25T10:41:27.013Z,99.90
2022-08-25T10:43:58.720Z,99.90
2022-08-25T10:46:36.897Z,99.90
2022-08-25T10:49:03.535Z,99.90
2022-08-25T10:51:33.356Z,99.90
2022-08-25T10:54:02.979Z,99.90
2022-08-25T10:56:33.897Z,99.90
2022-08-25T10:59:04.930Z,99.90
2022-08-25T11:01:43.595Z,99.90
2022-08-25T11:04:29.426Z,99.90
2022-08-25T11:07:01.458Z,99.90
2022-08-25T11:09:30.811Z,99.90
2022-08-25T11:11:59.641Z,99.90
2022-08-25T11:14:34.682Z,99.90
2022-08-25T11:17:13.994Z,99.90
2022-08-25T11:19:45.418Z,99.90
2022-08-25T11:22:15.937Z,99.90
2022-08-25T11:24:46.073Z,99.90
2022-08-25T11:27:16.097Z,99.90
2022-08-25T11:29:48.551Z,99.90
2022-08-25T11:32:18.391Z,99.90
2022-08-25T11:34:45.041Z,99.90
2022-08-25T11:37:19.960Z,99.90
2022-08-25T11:40:01.101Z,99.90
2022-08-25T11:42:43.009Z,99.90
2022-08-25T11:45:25.302Z,99.90
2022-08-25T11:48:10.453Z,99.90
2022-08-25T11:50:55.241Z,99.90
2022-08-25T11:53:28.418Z,99.90
2022-08-25T11:56:04.334Z,99.90
2022-08-25T11:58:33.386Z,99.90
2022-08-25T12:01:02.179Z,99.90
2022-08-25T12:03:31.506Z,99.90
2022-08-25T12:06:17.065Z,99.90
2022-08-25T12:09:05.356Z,99.90
2022-08-25T12:11:37.863Z,99.90
2022-08-25T12:14:16.241Z,99.90
2022-08-25T12:16:44.455Z,99.90
2022-08-25T12:19:31.219Z,99.90
2022-08-25T12:22:19.126Z,99.90
2022-08-25T12:24:56.062Z,99.90
2022-08-25T12:27:33.520Z,99.90
2022-08-25T12:30:02.964Z,99.90
2022-08-25T12:33:01.412Z,99.90
2022-08-25T12:35:29.918Z,99.90
2022-08-25T12:37:56.713Z,99.90
2022-08-25T12:40:35.161Z,99.90
2022-08-25T12:43:03.255Z,99.90
2022-08-25T12:45:35.396Z,99.90
2022-08-25T12:48:20.906Z,99.90
2022-08-25T12:50:56.550Z,99.90
2022-08-25T12:53:31.662Z,99.90
2022-08-25T12:56:01.555Z,99.90
2022-08-25T12:59:01.149Z,99.90
2022-08-25T13:01:46.946Z,99.90
2022-08-25T13:04:19.829Z,99.90
2022-08-25T13:07:00.563Z,99.90
2022-08-25T13:09:46.004Z,99.90
2022-08-25T13:12:15.890Z,99.90
2022-08-25T13:14:46.292Z,99.90
2022-08-25T13:17:24.599Z,99.90
2022-08-25T13:19:51.232Z,99.90
2022-08-25T13:22:19.643Z,99.90
2022-08-25T13:24:50.497Z,99.90
2022-08-25T13:27:36.878Z,99.90
2022-08-25T13:30:05.302Z,99.90
2022-08-25T13:32:38.092Z,99.90
2022-08-25T13:35:19.973Z,99.90
2022-08-25T13:37:47.130Z,99.90
2022-08-25T13:40:17.668Z,99.90
2022-08-25T13:42:52.990Z,99.90
2022-08-25T13:45:28.285Z,99.90
2022-08-25T13:48:21.252Z,99.90
2022-08-25T13:50:42.737Z,99.90
2022-08-25T13:53:22.264Z,99.90
2022-08-25T13:55:51.130Z,99.90
2022-08-25T13:58:38.638Z,99.90
2022-08-25T14:01:47.153Z,99.90
2022-08-25T14:04:32.637Z,99.90
2022-08-25T14:07:06.647Z,99.90
2022-08-25T14:10:01.515Z,99.10
2022-08-25T14:12:31.355Z,98.80
2022-08-25T14:14:59.337Z,98.10
2022-08-25T14:17:39.777Z,98.60
2022-08-25T14:20:16.081Z,98.20
2022-08-25T14:22:42.765Z,98.90
2022-08-25T14:25:09.561Z,99.20
2022-08-25T14:27:42.081Z,98.90
2022-08-25T14:30:28.904Z,99.00
2022-08-25T14:32:56.287Z,98.00
2022-08-25T14:35:22.944Z,98.50
2022-08-25T14:37:49.568Z,98.30
2022-08-25T14:40:19.913Z,97.00
2022-08-25T14:42:47.528Z,97.00
2022-08-25T14:45:14.749Z,97.50
2022-08-25T14:47:42.477Z,97.10
2022-08-25T14:50:10.409Z,96.80
2022-08-25T14:52:37.695Z,97.00
2022-08-25T14:55:05.981Z,97.10
2022-08-25T14:57:33.298Z,97.10
2022-08-25T15:00:00.960Z,97.10
2022-08-25T15:02:30.577Z,97.20
2022-08-25T15:05:02.188Z,97.20
2022-08-25T15:07:50.241Z,97.40
2022-08-25T15:10:17.627Z,97.10
2022-08-25T15:12:54.809Z,97.30
2022-08-25T15:15:32.690Z,96.80
2022-08-25T15:18:01.177Z,96.40
2022-08-25T15:20:29.144Z,96.60
2022-08-25T15:22:56.022Z,97.00
2022-08-25T15:25:23.257Z,96.60
2022-08-25T15:27:51.422Z,96.80
2022-08-25T15:30:18.528Z,97.00
2022-08-25T15:32:45.251Z,97.10
2022-08-25T15:35:16.062Z,97.30
2022-08-25T15:37:43.028Z,97.30
2022-08-25T15:40:10.392Z,97.50
2022-08-25T15:42:38.280Z,97.60
2022-08-25T15:45:14.194Z,97.30
2022-08-25T15:47:42.178Z,97.50
2022-08-25T15:50:11.313Z,97.70
2022-08-25T15:52:46.133Z,97.60
2022-08-25T15:55:13.929Z,97.30
2022-08-25T15:57:41.148Z,97.20
2022-08-25T16:00:13.694Z,97.60
2022-08-25T16:02:45.489Z,96.90
2022-08-25T16:05:13.786Z,97.00
2022-08-25T16:07:51.816Z,97.10
2022-08-25T16:10:18.981Z,96.70
2022-08-25T16:12:46.113Z,96.80
2022-08-25T16:15:13.679Z,96.80
2022-08-25T16:17:50.566Z,96.60
2022-08-25T16:20:18.318Z,97.00
2022-08-25T16:22:45.373Z,97.00
2022-08-25T16:25:12.230Z,96.70
2022-08-25T16:27:39.230Z,96.70
2022-08-25T16:30:08.851Z,96.50
2022-08-25T16:32:35.748Z,96.50
2022-08-25T16:35:02.939Z,96.30
2022-08-25T16:37:29.824Z,96.70
2022-08-25T16:39:57.125Z,97.00
2022-08-25T16:42:24.280Z,96.80
2022-08-25T16:44:53.935Z,96.80
2022-08-25T16:47:26.839Z,96.90
2022-08-25T16:49:53.834Z,97.00
2022-08-25T16:52:39.029Z,97.20
2022-08-25T16:55:13.431Z,96.50
2022-08-25T16:57:40.965Z,96.70
2022-08-25T17:00:12.724Z,96.60
2022-08-25T17:02:40.280Z,96.80
2022-08-25T17:05:08.099Z,96.80
2022-08-25T17:07:35.229Z,97.10
2022-08-25T17:10:02.224Z,97.20
2022-08-25T17:12:29.140Z,98.00
2022-08-25T17:14:55.832Z,98.10
2022-08-25T17:17:22.648Z,98.00
2022-08-25T17:19:54.802Z,98.20
2022-08-25T17:22:24.776Z,98.20
2022-08-25T17:25:01.003Z,98.50
2022-08-25T17:27:28.140Z,98.40
2022-08-25T17:29:55.411Z,98.50
2022-08-25T17:32:30.210Z,98.70
2022-08-25T17:34:57.879Z,98.80
2022-08-25T17:37:25.048Z,98.20
2022-08-25T17:40:02.394Z,98.80
2022-08-25T17:42:30.415Z,99.00
2022-08-25T17:44:58.214Z,99.20
2022-08-25T17:47:24.975Z,99.30
2022-08-25T17:49:51.702Z,99.40
2022-08-25T17:52:21.527Z,99.60
2022-08-25T17:54:52.715Z,99.70
2022-08-25T17:57:19.840Z,99.90
2022-08-25T17:59:48.004Z,99.90
2022-08-25T18:02:14.734Z,99.90
2022-08-25T18:04:41.536Z,99.90
2022-08-25T18:07:08.220Z,99.90
2022-08-25T18:09:35.095Z,99.90
2022-08-25T18:12:01.899Z,99.90
2022-08-25T18:14:30.087Z,99.90
2022-08-25T18:16:57.106Z,99.90
2022-08-25T18:19:23.722Z,99.90
2022-08-25T18:21:51.005Z,99.90
2022-08-25T18:24:19.297Z,99.90
2022-08-25T18:26:45.964Z,99.90
2022-08-25T18:29:13.289Z,99.90
2022-08-25T18:31:40.906Z,99.90
2022-08-25T18:34:10.956Z,99.90
2022-08-25T18:36:38.778Z,99.90
2022-08-25T18:39:24.912Z,99.90
2022-08-25T18:41:51.794Z,99.90
2022-08-25T18:44:18.515Z,99.90
2022-08-25T18:46:45.485Z,99.90
2022-08-25T18:49:12.755Z,99.90
2022-08-25T18:51:44.337Z,99.90
2022-08-25T18:54:23.336Z,99.90
2022-08-25T18:56:51.410Z,99.90
2022-08-25T18:59:19.093Z,99.90
2022-08-25T19:01:46.227Z,99.90
2022-08-25T19:04:14.797Z,99.90
2022-08-25T19:06:43.859Z,99.90
2022-08-25T19:09:10.778Z,99.90
2022-08-25T19:11:38.593Z,99.90
2022-08-25T19:14:11.959Z,99.90
2022-08-25T19:16:40.333Z,99.90
2022-08-25T19:19:07.720Z,99.90
2022-08-25T19:21:35.002Z,99.90
2022-08-25T19:24:03.120Z,99.90
2022-08-25T19:26:30.609Z,99.90
2022-08-25T19:28:57.613Z,99.90
2022-08-25T19:31:25.792Z,99.90
2022-08-25T19:33:53.605Z,99.90
2022-08-25T19:36:23.167Z,99.90
2022-08-25T19:38:51.830Z,99.90
2022-08-25T19:41:19.379Z,99.90
2022-08-25T19:43:55.126Z,99.90
2022-08-25T19:46:24.410Z,99.90
2022-08-25T19:48:51.027Z,99.90
2022-08-25T19:51:19.389Z,99.90
2022-08-25T19:53:52.275Z,99.90
2022-08-25T19:56:21.116Z,99.90
2022-08-25T19:58:47.867Z,99.90
2022-08-25T20:01:18.259Z,99.90
2022-08-25T20:03:45.340Z,99.90
2022-08-25T20:06:12.134Z,99.90
2022-08-25T20:08:43.487Z,99.90
2022-08-25T20:11:10.859Z,99.90
2022-08-25T20:13:37.529Z,99.90
2022-08-25T20:16:05.346Z,99.90
2022-08-25T20:18:32.260Z,99.90
2022-08-25T20:20:58.942Z,99.90
2022-08-25T20:23:44.457Z,99.90
2022-08-25T20:26:11.230Z,99.90
2022-08-25T20:28:42.035Z,99.90
2022-08-25T20:31:09.217Z,99.90
2022-08-25T20:33:36.047Z,99.90
2022-08-25T20:36:04.812Z,99.90
2022-08-25T20:38:32.036Z,99.90
2022-08-25T20:40:59.890Z,99.90
2022-08-25T20:43:29.468Z,99.90
2022-08-25T20:46:00.335Z,99.90
2022-08-25T20:48:27.935Z,99.90
2022-08-25T20:50:57.617Z,99.90
2022-08-25T20:53:25.188Z,99.90
2022-08-25T20:55:52.104Z,99.90
2022-08-25T20:58:19.043Z,99.90
2022-08-25T21:00:46.077Z,99.90
2022-08-25T21:03:12.853Z,99.90
2022-08-25T21:05:40.525Z,99.90
2022-08-25T21:08:08.806Z,99.90
2022-08-25T21:10:35.695Z,99.90
2022-08-25T21:13:02.436Z,99.90
2022-08-25T21:15:29.711Z,99.90
2022-08-25T21:17:56.437Z,99.90
2022-08-25T21:20:24.094Z,99.90
2022-08-25T21:22:51.028Z,99.90
2022-08-25T21:25:20.347Z,99.90
2022-08-25T21:27:47.947Z,99.90
2022-08-25T21:30:16.280Z,99.90
2022-08-25T21:32:52.680Z,99.90
2022-08-25T21:35:21.445Z,99.90
2022-08-25T21:37:52.984Z,99.90
2022-08-25T21:40:21.431Z,99.90
2022-08-25T21:42:48.839Z,99.90
2022-08-25T21:45:15.601Z,99.90
2022-08-25T21:47:42.836Z,99.90
2022-08-25T21:50:10.889Z,99.90
2022-08-25T21:52:37.547Z,99.90
2022-08-25T21:55:04.996Z,99.90
2022-08-25T21:57:32.249Z,99.90
2022-08-25T22:00:04.196Z,99.90
2022-08-25T22:02:31.322Z,99.90
2022-08-25T22:04:58.932Z,99.90
2022-08-25T22:07:25.924Z,99.90
2022-08-25T22:09:53.041Z,99.90
2022-08-25T22:12:19.683Z,99.90
2022-08-25T22:14:46.495Z,99.90
2022-08-25T22:17:16.485Z,99.90
2022-08-25T22:19:43.958Z,99.90
2022-08-25T22:22:10.720Z,99.90
2022-08-25T22:24:37.976Z,99.90
2022-08-25T22:27:05.000Z,99.90
2022-08-25T22:29:43.535Z,99.90
2022-08-25T22:32:10.770Z,99.90
2022-08-25T22:34:40.500Z,99.90
2022-08-25T22:37:07.182Z,99.90
2022-08-25T22:39:35.202Z,99.90
2022-08-25T22:42:02.784Z,99.90
2022-08-25T22:44:29.609Z,99.90
2022-08-25T22:46:56.307Z,99.90
2022-08-25T22:49:23.716Z,99.90
2022-08-25T22:51:50.935Z,99.90
2022-08-25T22:54:18.124Z,99.90
2022-08-25T22:56:44.933Z,99.90
2022-08-25T22:59:13.029Z,99.90
2022-08-25T23:01:40.397Z,99.90
2022-08-25T23:04:07.426Z,99.90
2022-08-25T23:06:37.071Z,99.90
2022-08-25T23:09:05.227Z,99.90
2022-08-25T23:11:31.930Z,99.90
2022-08-25T23:14:00.528Z,99.90
2022-08-25T23:16:28.427Z,99.90
2022-08-25T23:18:55.256Z,99.90
2022-08-25T23:21:41.364Z,99.90
2022-08-25T23:24:10.872Z,99.90
2022-08-25T23:26:41.794Z,99.90
2022-08-25T23:29:18.032Z,99.90
2022-08-25T23:31:45.958Z,99.90
2022-08-25T23:34:13.453Z,99.90
2022-08-25T23:36:40.341Z,99.90
2022-08-25T23:39:07.935Z,99.90
2022-08-25T23:41:36.860Z,99.90
2022-08-25T23:44:05.430Z,99.90
2022-08-25T23:46:33.125Z,99.90
2022-08-25T23:49:00.176Z,99.90
2022-08-25T23:51:28.248Z,99.90
2022-08-25T23:53:56.528Z,99.90
2022-08-25T23:56:26.007Z,99.90
2022-08-25T23:58:52.749Z,99.90
